»·PEaware :: WAT390 KPHX-KOAK

WAT390 :: KPHX-KOAK

FLIGHT INFORMATION

Flight Status: Arrived
Operator:
Walker Air Transport
More flights by this operator :: More flights under this callsign
Pilot: Ewen S. (18928)
Aircraft: BOEING 737-200
(B732)
More flights by this aircraft type
Origin: KPHX Phoenix Sky Harbor Intl
United States
Destination: KOAK Metro Oakland Intl
United States
More flights between these airports :: More routes between these airports
Route: BXK4 PMD V137 GMN PXN6
File this flight plan on PilotEdge
Remarks:
Altitude:
(Current/Filed)
30,000ft
Speed:
(Current/Filed)
430kts
Departed: 21-Jan-21 01:37 PM
Arrived: 21-Jan-21 03:14 PM
Distance/Time
Traveled:
560nm/1:37
Distance/Time
To Go:
Arrived

Flight Plot

Page will automatically refresh every two minutes.

Flight plan parsing failed; only flown route is shown


Map Options




Map Legend


Flown Route
Filed Route
Departure Airport
Arrival Airport
Navaid (VOR, NDB)
Fix

Horizontal Profiles

Position Reports

Time Latitude Longitude Heading Altitude Ground
Speed
21-Jan-21 13:06 33.434052 -111.997280 77 1118ft 0kts
21-Jan-21 13:07 33.434052 -111.997280 77 1118ft 0kts
21-Jan-21 13:08 33.434052 -111.997280 77 1118ft 0kts
21-Jan-21 13:09 33.434052 -111.997280 77 1118ft 0kts
21-Jan-21 13:10 33.434052 -111.997280 77 1118ft 0kts
21-Jan-21 13:11 33.434052 -111.997280 77 1118ft 0kts
21-Jan-21 13:12 33.434052 -111.997280 77 1118ft 0kts
21-Jan-21 13:13 33.434052 -111.997280 77 1118ft 0kts
21-Jan-21 13:14 33.434052 -111.997280 77 1118ft 0kts
21-Jan-21 13:15 33.434052 -111.997280 77 1118ft 0kts
21-Jan-21 13:16 33.434052 -111.997280 77 1118ft 0kts
21-Jan-21 13:17 33.434052 -111.997280 77 1118ft 0kts
21-Jan-21 13:18 33.434052 -111.997280 77 1118ft 0kts
21-Jan-21 13:19 33.434052 -111.997280 77 1118ft 0kts
21-Jan-21 13:20 33.434052 -111.997280 77 1118ft 0kts
21-Jan-21 13:21 33.434052 -111.997280 77 1118ft 0kts
21-Jan-21 13:22 33.434052 -111.997280 77 1118ft 0kts
21-Jan-21 13:23 33.434052 -111.997280 77 1118ft 0kts
21-Jan-21 13:24 33.434052 -111.997280 77 1118ft 0kts
21-Jan-21 13:25 33.434052 -111.997281 77 1118ft 0kts
21-Jan-21 13:26 33.434079 -111.997810 160 1118ft 2kts
21-Jan-21 13:27 33.434198 -111.997818 181 1118ft 0kts
21-Jan-21 13:28 33.434198 -111.997818 181 1118ft 0kts
21-Jan-21 13:29 33.434198 -111.997818 181 1118ft 0kts
21-Jan-21 13:30 33.432198 -111.998443 253 1118ft 15kts
21-Jan-21 13:31 33.432153 -112.005381 270 1118ft 23kts
21-Jan-21 13:32 33.432165 -112.013256 269 1118ft 23kts
21-Jan-21 13:33 33.432158 -112.020684 270 1118ft 19kts
21-Jan-21 13:34 33.432156 -112.026493 271 1118ft 9kts
21-Jan-21 13:35 33.431194 -112.026975 144 1118ft 13kts
21-Jan-21 13:36 33.431080 -112.004106 89 1378ft 145kts
21-Jan-21 13:37 33.435625 -111.944997 85 3143ft 215kts
21-Jan-21 13:38 33.434992 -111.873323 106 6389ft 235kts
21-Jan-21 13:39 33.381678 -111.857082 223 9770ft 250kts
21-Jan-21 13:40 33.334196 -111.924709 230 12515ft 266kts
21-Jan-21 13:41 33.317291 -112.016422 262 15000ft 286kts
21-Jan-21 13:42 33.309191 -112.126139 267 16598ft 327kts
21-Jan-21 13:43 33.323522 -112.243933 285 18849ft 340kts
21-Jan-21 13:44 33.360444 -112.357792 290 20792ft 350kts
21-Jan-21 13:45 33.391718 -112.475840 281 22499ft 357kts
21-Jan-21 13:46 33.411744 -112.603684 280 24043ft 366kts
21-Jan-21 13:47 33.435365 -112.731319 282 25466ft 372kts
21-Jan-21 13:48 33.458706 -112.852229 282 26607ft 378kts
21-Jan-21 13:49 33.486193 -112.985501 283 27917ft 379kts
21-Jan-21 13:50 33.511768 -113.117994 283 29368ft 372kts
21-Jan-21 13:51 33.536737 -113.252248 283 30020ft 382kts
21-Jan-21 13:52 33.561756 -113.388951 284 30022ft 400kts
21-Jan-21 13:53 33.587988 -113.531550 286 30026ft 416kts
21-Jan-21 13:54 33.615131 -113.678013 286 30022ft 430kts
21-Jan-21 13:55 33.641656 -113.821752 286 30036ft 440kts
21-Jan-21 13:56 33.667989 -113.963847 287 30049ft 448kts
21-Jan-21 13:57 33.695036 -114.111334 287 30053ft 456kts
21-Jan-21 13:58 33.722405 -114.261149 287 30048ft 461kts
21-Jan-21 13:59 33.750960 -114.418692 287 30046ft 465kts
21-Jan-21 14:00 33.773975 -114.578036 273 30050ft 472kts
21-Jan-21 14:01 33.771490 -114.742869 276 30048ft 468kts
21-Jan-21 14:02 33.784866 -114.897965 283 30049ft 460kts
21-Jan-21 14:03 33.798637 -115.053166 279 30055ft 460kts
21-Jan-21 14:04 33.811367 -115.206516 280 30047ft 458kts
21-Jan-21 14:05 33.822570 -115.359968 278 30015ft 458kts
21-Jan-21 14:06 33.828633 -115.512376 269 30024ft 460kts
21-Jan-21 14:07 33.836488 -115.665320 287 30094ft 445kts
21-Jan-21 14:08 33.876683 -115.805078 298 30160ft 438kts
21-Jan-21 14:09 33.930436 -115.939700 299 30156ft 437kts
21-Jan-21 14:10 33.999077 -116.061432 310 30152ft 432kts
21-Jan-21 14:11 34.068766 -116.184712 285 30155ft 443kts
21-Jan-21 14:12 34.090849 -116.337668 285 30155ft 442kts
21-Jan-21 14:13 34.125383 -116.482087 298 30155ft 437kts
21-Jan-21 14:14 34.183266 -116.613568 300 30156ft 437kts
21-Jan-21 14:15 34.237852 -116.749441 296 30155ft 439kts
21-Jan-21 14:16 34.278183 -116.893111 293 30156ft 441kts
21-Jan-21 14:17 34.323066 -117.031119 294 30155ft 440kts
21-Jan-21 14:18 34.367562 -117.170823 293 30155ft 441kts
21-Jan-21 14:19 34.409084 -117.312612 293 30155ft 440kts
21-Jan-21 14:20 34.450902 -117.451980 290 30155ft 441kts
21-Jan-21 14:21 34.491262 -117.593387 294 30155ft 438kts
21-Jan-21 14:22 34.534254 -117.733381 290 30156ft 439kts
21-Jan-21 14:24 34.574341 -117.875372 293 30155ft 438kts
21-Jan-21 14:25 34.618717 -118.014834 293 30156ft 438kts
21-Jan-21 14:26 34.651613 -118.159096 270 30155ft 445kts
21-Jan-21 14:27 34.682131 -118.303850 285 30156ft 436kts
21-Jan-21 14:28 34.713686 -118.451170 283 30154ft 437kts
21-Jan-21 14:29 34.744241 -118.596367 295 30156ft 433kts
21-Jan-21 14:30 34.779481 -118.734974 284 30156ft 436kts
21-Jan-21 14:31 34.807390 -118.871498 295 30151ft 434kts
21-Jan-21 14:32 34.903445 -118.956558 321 30149ft 432kts
21-Jan-21 14:33 34.994688 -119.052458 320 30156ft 432kts
21-Jan-21 14:34 35.089709 -119.144721 320 30155ft 433kts
21-Jan-21 14:35 35.184248 -119.236147 319 30156ft 434kts
21-Jan-21 14:36 35.278408 -119.329710 319 30155ft 435kts
21-Jan-21 14:37 35.372647 -119.425026 318 30155ft 436kts
21-Jan-21 14:38 35.466543 -119.520565 318 30155ft 436kts
21-Jan-21 14:39 35.561488 -119.617071 318 30155ft 436kts
21-Jan-21 14:40 35.656232 -119.713628 317 30065ft 439kts
21-Jan-21 14:41 35.742623 -119.802035 317 30073ft 439kts
21-Jan-21 14:41 35.822068 -119.883095 317 30079ft 439kts
21-Jan-21 14:42 35.917517 -119.980497 317 30105ft 439kts
21-Jan-21 14:44 36.032622 -120.084800 324 30079ft 443kts
21-Jan-21 14:44 36.115959 -120.150620 323 30078ft 442kts
21-Jan-21 14:45 36.215526 -120.243209 317 30076ft 439kts
21-Jan-21 14:46 36.305198 -120.345854 313 30077ft 438kts
21-Jan-21 14:47 36.395785 -120.449286 316 30074ft 439kts
21-Jan-21 14:48 36.488146 -120.542679 318 29851ft 402kts
21-Jan-21 14:49 36.573621 -120.629462 317 28018ft 392kts
21-Jan-21 14:50 36.653663 -120.714817 317 26471ft 378kts
21-Jan-21 14:51 36.732982 -120.797478 317 24848ft 369kts
21-Jan-21 14:52 36.804760 -120.883485 314 23255ft 359kts
21-Jan-21 14:53 36.876420 -120.966724 314 21719ft 351kts
21-Jan-21 14:54 36.948203 -121.050807 314 20177ft 344kts
21-Jan-21 14:55 37.017730 -121.132539 314 18740ft 337kts
21-Jan-21 14:56 37.085169 -121.212073 315 17527ft 320kts
21-Jan-21 14:57 37.146984 -121.284769 315 14796ft 316kts
21-Jan-21 14:58 37.210735 -121.360547 316 12346ft 309kts
21-Jan-21 14:59 37.272554 -121.433663 316 10095ft 294kts
21-Jan-21 15:00 37.319320 -121.488277 316 9439ft 275kts
21-Jan-21 15:01 37.374122 -121.552499 316 8019ft 274kts
21-Jan-21 15:02 37.421480 -121.625666 303 6988ft 258kts
21-Jan-21 15:03 37.458668 -121.696512 296 6960ft 248kts
21-Jan-21 15:04 37.486299 -121.776163 291 6225ft 248kts
21-Jan-21 15:05 37.513032 -121.855902 292 5429ft 243kts
21-Jan-21 15:06 37.538688 -121.932149 292 4948ft 221kts
21-Jan-21 15:07 37.562503 -122.002326 292 4165ft 221kts
21-Jan-21 15:08 37.599901 -122.062068 309 3053ft 207kts
21-Jan-21 15:09 37.632218 -122.110362 308 2171ft 169kts
21-Jan-21 15:10 37.660417 -122.152744 308 1286ft 134kts
21-Jan-21 15:11 37.682942 -122.186488 308 596ft 122kts
21-Jan-21 15:12 37.704314 -122.218481 308 24ft 113kts
21-Jan-21 15:13 37.718036 -122.239041 314 15ft 31kts
21-Jan-21 15:14 37.718840 -122.237489 123 15ft 9kts
21-Jan-21 15:15 37.715739 -122.231885 129 14ft 24kts
21-Jan-21 15:16 37.711759 -122.225921 131 16ft 8kts
21-Jan-21 15:17 37.712721 -122.221630 126 16ft 17kts
21-Jan-21 15:18 37.709306 -122.216135 80 16ft 12kts
21-Jan-21 15:19 37.710075 -122.215831 330 16ft 0kts
21-Jan-21 15:20 37.710069 -122.215826 330 16ft 0kts

Navigation Log

Ident Type
Flight plan parsing failed, navigation log unavailable